createdAt,value
2023-04-23T18:49:11.575Z,23.19
2023-04-23T18:50:45.820Z,29.75
2023-04-23T18:51:52.992Z,16.69
2023-04-23T18:52:56.898Z,18.94
2023-04-23T18:54:02.286Z,19.19
2023-04-23T18:55:06.469Z,18.31
2023-04-23T18:56:10.475Z,22.94
2023-04-23T18:57:14.406Z,24.00
2023-04-23T18:58:18.247Z,25.00
2023-04-23T18:59:22.210Z,4.75
2023-04-23T19:00:31.110Z,23.62
2023-04-23T19:01:34.961Z,24.69
2023-04-23T19:02:40.779Z,23.38
2023-04-23T19:03:44.864Z,22.69
2023-04-23T19:04:49.241Z,23.87
2023-04-23T19:05:55.736Z,26.50
2023-04-23T19:07:00.467Z,28.94
2023-04-23T19:08:04.394Z,27.56
2023-04-23T19:09:08.466Z,29.37
2023-04-23T19:10:16.202Z,30.33
2023-04-23T19:11:20.233Z,28.50
2023-04-23T19:12:24.250Z,28.75
2023-04-23T19:13:32.327Z,28.50
2023-04-23T19:14:36.589Z,28.50
2023-04-23T19:15:40.682Z,26.56
2023-04-23T19:16:44.819Z,28.25
2023-04-23T19:17:56.766Z,21.81
2023-04-23T19:19:00.728Z,27.87
2023-04-23T19:20:04.977Z,27.31
2023-04-23T19:21:08.826Z,27.69
2023-04-23T19:22:12.767Z,26.94
2023-04-23T19:23:16.658Z,31.75
2023-04-23T19:24:20.624Z,29.63
2023-04-23T19:25:26.146Z,27.31
2023-04-23T19:26:30.223Z,31.44
2023-04-23T19:27:34.893Z,84.47
2023-04-23T19:28:38.843Z,111.00
2023-04-23T19:29:43.050Z,52.00
2023-04-23T19:30:47.225Z,54.88
2023-04-23T19:31:51.151Z,43.50
2023-04-23T19:32:55.254Z,46.33
2023-04-23T19:33:59.253Z,41.50
2023-04-23T19:35:04.133Z,32.81
2023-04-23T19:36:09.851Z,38.69
2023-04-23T19:37:13.722Z,42.44
2023-04-23T19:40:00.945Z,49.25
2023-04-23T19:41:06.393Z,45.75
2023-04-23T19:42:30.875Z,49.80
2023-04-23T19:43:34.946Z,48.56
2023-04-23T19:44:41.508Z,50.44
2023-04-23T19:45:45.454Z,49.56
2023-04-23T19:46:49.326Z,42.94
2023-04-23T19:47:54.018Z,47.27
2023-04-23T19:48:57.921Z,47.60
2023-04-23T19:50:05.833Z,46.81
2023-04-23T19:51:11.444Z,51.88
2023-04-23T19:52:37.223Z,49.81
2023-04-23T19:53:41.247Z,46.56
2023-04-23T19:54:48.412Z,48.67
2023-04-23T19:55:52.329Z,48.13
2023-04-23T19:57:02.320Z,46.75
2023-04-23T19:58:08.328Z,44.75
2023-04-23T19:59:11.941Z,44.38
2023-04-23T20:00:20.560Z,41.81
2023-04-23T20:01:29.047Z,43.75
2023-04-23T20:02:39.693Z,41.00
2023-04-23T20:04:01.785Z,46.00
2023-04-23T20:05:06.243Z,34.31
2023-04-23T20:06:10.305Z,39.69
2023-04-23T20:07:15.391Z,39.94
2023-04-23T20:08:19.323Z,43.06
2023-04-23T20:09:23.271Z,44.73
2023-04-23T20:10:29.956Z,42.38
2023-04-23T20:11:37.202Z,34.88
2023-04-23T20:12:41.062Z,43.63
2023-04-23T20:13:56.935Z,34.94
2023-04-23T20:15:00.876Z,34.19
2023-04-23T20:16:05.266Z,40.81
2023-04-23T20:17:11.293Z,45.50
2023-04-23T20:18:16.760Z,37.06
2023-04-23T20:19:20.611Z,40.12
2023-04-23T20:20:24.683Z,45.06
2023-04-23T20:21:28.686Z,57.94
2023-04-23T20:22:36.834Z,72.47
2023-04-23T20:23:40.854Z,82.20
2023-04-23T20:24:46.641Z,59.00
2023-04-23T20:25:50.694Z,49.81
2023-04-23T20:26:54.773Z,76.69
2023-04-23T20:27:58.860Z,71.33
2023-04-23T20:29:04.783Z,72.12
2023-04-23T20:30:10.969Z,68.53
2023-04-23T20:31:17.993Z,53.94
2023-04-23T20:32:22.544Z,46.06
2023-04-23T20:33:26.501Z,55.63
2023-04-23T20:34:30.559Z,48.50
2023-04-23T20:35:34.542Z,44.19
2023-04-23T20:36:38.513Z,45.44
2023-04-23T20:37:42.373Z,48.63
2023-04-23T20:38:57.625Z,60.13
2023-04-23T20:39:51.830Z,59.94
2023-04-23T20:40:55.672Z,62.00
2023-04-23T20:42:01.208Z,53.27
2023-04-23T20:43:05.348Z,59.75
2023-04-23T20:44:10.048Z,55.56
2023-04-23T20:45:13.977Z,50.06
2023-04-23T20:46:18.042Z,52.75
2023-04-23T20:47:24.667Z,46.44
2023-04-23T20:48:30.806Z,44.19
2023-04-23T20:49:36.405Z,45.81
2023-04-23T20:50:43.994Z,49.50
2023-04-23T20:51:47.608Z,49.69
2023-04-23T20:52:52.481Z,46.81
2023-04-23T20:53:58.121Z,43.19
2023-04-23T20:55:05.488Z,41.88
2023-04-23T20:56:08.942Z,40.12
2023-04-23T20:57:12.924Z,39.19
2023-04-23T20:58:16.978Z,46.13
2023-04-23T20:59:22.339Z,52.88
2023-04-23T21:00:27.353Z,46.94
2023-04-23T21:01:31.406Z,50.40
2023-04-23T21:02:35.986Z,77.47
2023-04-23T21:03:40.976Z,53.31
2023-04-23T21:04:44.933Z,58.20
2023-04-23T21:05:48.780Z,46.50
2023-04-23T21:06:52.785Z,50.00
2023-04-23T21:07:56.701Z,50.75
2023-04-23T21:09:00.729Z,46.00
2023-04-23T21:10:05.993Z,35.00
2023-04-23T21:11:17.738Z,37.06
2023-04-23T21:12:21.841Z,45.40
2023-04-23T21:13:25.943Z,38.38
2023-04-23T21:14:30.274Z,28.87
2023-04-23T21:15:34.208Z,36.38
2023-04-23T21:16:38.883Z,33.50
2023-04-23T21:17:43.147Z,28.31
2023-04-23T21:18:47.055Z,26.81
2023-04-23T21:19:51.592Z,25.56
2023-04-23T21:20:55.559Z,15.50
2023-04-23T21:22:01.517Z,22.94
2023-04-23T21:23:05.276Z,20.31
2023-04-23T21:24:09.207Z,27.94
2023-04-23T21:25:13.036Z,25.88
2023-04-23T21:26:17.061Z,23.06
2023-04-23T21:27:20.974Z,27.37
2023-04-23T21:28:25.343Z,28.56
2023-04-23T21:29:31.577Z,33.81
2023-04-23T21:30:48.006Z,36.19
2023-04-23T21:31:53.224Z,37.44
2023-04-23T21:32:57.334Z,36.50
2023-04-23T21:34:01.411Z,39.60
2023-04-23T21:35:06.074Z,50.56
2023-04-23T21:36:11.599Z,43.87
2023-04-23T21:37:15.435Z,26.62
2023-04-23T21:38:20.788Z,22.62
2023-04-23T21:39:24.669Z,23.31
2023-04-23T21:40:28.652Z,30.50
2023-04-23T21:41:32.711Z,16.75
2023-04-23T21:42:36.890Z,35.63
2023-04-23T21:43:40.825Z,35.27
2023-04-23T21:44:44.815Z,35.25
2023-04-23T21:45:48.850Z,37.47
2023-04-23T21:46:52.866Z,34.31
2023-04-23T21:47:56.899Z,33.44
2023-04-23T21:49:00.884Z,38.81
2023-04-23T21:50:05.133Z,30.88
2023-04-23T21:51:09.118Z,34.75
2023-04-23T21:52:13.027Z,27.44
2023-04-23T21:53:16.876Z,36.31
2023-04-23T21:54:21.206Z,36.25
2023-04-23T21:55:27.859Z,37.00
2023-04-23T21:56:31.947Z,34.38
2023-04-23T21:57:35.944Z,36.56
2023-04-23T21:58:39.868Z,40.69
2023-04-23T21:59:44.103Z,37.38
2023-04-23T22:00:48.296Z,41.50
2023-04-23T22:01:52.268Z,43.56
2023-04-23T22:02:58.052Z,43.94
2023-04-23T22:04:07.866Z,37.81
2023-04-23T22:05:09.131Z,37.75
2023-04-23T22:06:13.641Z,39.56
2023-04-23T22:07:17.621Z,44.13
2023-04-23T22:08:21.540Z,42.44
2023-04-23T22:09:25.558Z,45.38
2023-04-23T22:10:29.596Z,45.00
2023-04-23T22:11:33.575Z,45.88
2023-04-23T22:12:38.488Z,41.00
2023-04-23T22:13:45.493Z,45.81
2023-04-23T22:14:49.314Z,47.31
2023-04-23T22:15:53.333Z,44.94
2023-04-23T22:16:57.366Z,43.60
2023-04-23T22:18:01.313Z,45.31
2023-04-23T22:19:05.245Z,43.38
2023-04-23T22:20:11.615Z,39.44
2023-04-23T22:21:15.559Z,47.69
2023-04-23T22:23:50.915Z,34.44
2023-04-23T22:24:54.803Z,43.56
2023-04-23T22:25:58.749Z,40.44
2023-04-23T22:27:02.599Z,38.63
2023-04-23T22:28:06.572Z,46.50
2023-04-23T22:29:10.644Z,45.44
2023-04-23T22:30:14.836Z,33.25
2023-04-23T22:31:20.551Z,31.81
2023-04-23T22:32:24.539Z,25.06
2023-04-23T22:33:28.435Z,28.44
2023-04-23T22:34:32.492Z,25.81
2023-04-23T22:35:36.454Z,28.94
2023-04-23T22:36:40.386Z,32.69
2023-04-23T22:37:47.104Z,26.25
2023-04-23T22:38:50.063Z,30.81
2023-04-23T22:39:54.091Z,32.19
2023-04-23T22:40:58.011Z,28.19
2023-04-23T22:42:01.854Z,27.56
2023-04-23T22:43:05.739Z,31.62
2023-04-23T22:44:09.632Z,31.87
2023-04-23T22:45:13.476Z,33.06
2023-04-23T22:46:17.484Z,32.81
2023-04-23T22:47:21.598Z,31.87
2023-04-23T22:48:25.617Z,34.13
2023-04-23T22:49:29.597Z,33.44
2023-04-23T22:50:33.701Z,31.37
2023-04-23T22:51:37.614Z,33.25
2023-04-23T22:52:41.623Z,32.50
2023-04-23T22:53:47.076Z,32.69
2023-04-23T22:54:52.653Z,31.62
2023-04-23T22:55:58.310Z,33.75
2023-04-23T22:57:02.670Z,39.75
2023-04-23T22:58:07.935Z,39.69
2023-04-23T22:59:13.601Z,40.94
2023-04-23T23:00:17.577Z,32.38
2023-04-23T23:01:21.634Z,37.27
2023-04-23T23:02:25.635Z,40.00
2023-04-23T23:03:29.884Z,41.63
2023-04-23T23:04:34.226Z,28.12
2023-04-23T23:05:38.261Z,46.00
2023-04-23T23:06:42.248Z,34.50
2023-04-23T23:07:46.060Z,43.25
2023-04-23T23:08:50.068Z,43.00
2023-04-23T23:09:53.974Z,37.00
2023-04-23T23:10:57.986Z,43.81
2023-04-23T23:12:03.518Z,39.13
2023-04-23T23:13:07.608Z,43.75
2023-04-23T23:14:11.650Z,43.81
2023-04-23T23:15:15.655Z,43.94
2023-04-23T23:16:19.564Z,36.88
2023-04-23T23:17:23.478Z,43.81
2023-04-23T23:18:27.436Z,43.87
2023-04-23T23:19:31.436Z,42.00
2023-04-23T23:20:35.468Z,43.40
2023-04-23T23:21:39.509Z,45.56
2023-04-23T23:22:43.584Z,49.38
2023-04-23T23:23:47.460Z,32.94
2023-04-23T23:24:51.437Z,44.56
2023-04-23T23:25:55.630Z,49.13
2023-04-23T23:26:59.761Z,50.75
2023-04-23T23:28:03.593Z,48.06
2023-04-23T23:29:07.604Z,50.25
2023-04-23T23:30:11.755Z,38.81
2023-04-23T23:31:15.804Z,28.75
2023-04-23T23:32:19.720Z,32.44
2023-04-23T23:33:23.784Z,25.00
2023-04-23T23:34:29.705Z,43.13
2023-04-23T23:35:33.225Z,38.19
2023-04-23T23:36:38.563Z,43.63
2023-04-23T23:37:42.542Z,45.50
2023-04-23T23:38:46.434Z,48.80
2023-04-23T23:39:50.249Z,42.62
2023-04-23T23:40:54.182Z,44.88
2023-04-23T23:41:59.997Z,39.67
2023-04-23T23:43:03.930Z,38.19
2023-04-23T23:44:07.720Z,37.00
2023-04-23T23:45:11.940Z,36.31
2023-04-23T23:46:16.175Z,29.87
2023-04-23T23:47:20.299Z,25.50
2023-04-23T23:48:24.322Z,36.94
2023-04-23T23:49:28.101Z,38.63
2023-04-23T23:50:32.786Z,40.69
2023-04-23T23:51:39.685Z,40.75
2023-04-23T23:52:43.648Z,37.88
2023-04-23T23:53:47.443Z,41.31
2023-04-23T23:54:51.413Z,43.75
2023-04-23T23:55:55.256Z,41.69
2023-04-23T23:56:59.204Z,36.06
2023-04-23T23:58:03.005Z,28.06
2023-04-23T23:59:06.893Z,33.25
